Time;durP1;ratioP1;P1;durP2;ratioP2;P2;SDS_P1;SDS_P2;PMS_P1;PMS_P2;Temp;Humidity;BMP_temperature;BMP_pressure;BME280_temperature;BME280_humidity;BME280_pressure;Samples;Min_cycle;Max_cycle;Signal;HPM_P1;HPM_P2
2024/01/22 00:02:23;;;;;;;8.77;3.90;;;;;;;9.28;100.00;100840.63;5262989;28;20036;-81
2024/01/22 00:04:54;;;;;;;6.35;3.08;;;;;;;9.31;100.00;100839.53;5263982;28;20308;-81
2024/01/22 00:07:26;;;;;;;4.70;3.00;;;;;;;9.32;100.00;100821.13;5265609;28;20409;-81
2024/01/22 00:09:58;;;;;;;5.22;3.00;;;;;;;9.37;100.00;100797.22;5262281;28;20040;-81
2024/01/22 00:12:30;;;;;;;4.72;2.95;;;;;;;9.25;100.00;100815.56;5264691;28;20043;-81
2024/01/22 00:15:03;;;;;;;5.28;2.83;;;;;;;9.37;100.00;100803.28;5258824;28;20032;-81
2024/01/22 00:17:35;;;;;;;4.32;3.17;;;;;;;9.34;100.00;100793.06;5265367;28;20032;-81
2024/01/22 00:20:07;;;;;;;4.32;2.95;;;;;;;9.42;100.00;100801.09;5264477;28;20035;-81
2024/01/22 00:22:39;;;;;;;6.00;3.05;;;;;;;9.44;100.00;100833.22;5267727;28;20043;-81
2024/01/22 00:25:11;;;;;;;6.43;2.65;;;;;;;9.49;100.00;100830.22;5267079;28;20028;-81
2024/01/22 00:27:43;;;;;;;5.53;3.00;;;;;;;9.47;100.00;100782.44;5263933;28;20033;-81
2024/01/22 00:30:15;;;;;;;4.25;2.58;;;;;;;9.44;100.00;100790.53;5262528;28;20028;-81
2024/01/22 00:32:47;;;;;;;6.57;2.80;;;;;;;9.44;100.00;100787.94;5268077;28;20020;-81
2024/01/22 00:35:20;;;;;;;4.03;2.58;;;;;;;9.53;100.00;100771.47;5265818;28;20047;-81
2024/01/22 00:37:52;;;;;;;6.68;2.83;;;;;;;9.55;100.00;100756.50;5260963;28;20048;-81
2024/01/22 00:40:24;;;;;;;6.88;3.20;;;;;;;9.59;100.00;100754.47;5266216;28;20025;-81
2024/01/22 00:42:55;;;;;;;6.10;2.60;;;;;;;9.62;100.00;100757.66;5263190;28;20024;-81
2024/01/22 00:45:27;;;;;;;3.90;2.67;;;;;;;9.66;100.00;100738.16;5264356;28;20567;-81
2024/01/22 00:47:59;;;;;;;4.80;2.50;;;;;;;9.67;100.00;100726.72;5266542;28;20029;-81
2024/01/22 00:50:31;;;;;;;4.47;2.30;;;;;;;9.76;100.00;100727.72;5274695;28;20037;-81
2024/01/22 00:53:03;;;;;;;5.97;2.47;;;;;;;9.70;100.00;100718.63;5262376;28;20110;-81
2024/01/22 00:55:35;;;;;;;3.30;2.20;;;;;;;9.75;100.00;100729.53;5266206;28;20033;-81
2024/01/22 00:58:07;;;;;;;3.75;2.20;;;;;;;9.80;100.00;100726.53;5259196;28;20035;-81
2024/01/22 01:00:39;;;;;;;5.72;2.78;;;;;;;9.75;100.00;100723.47;5266135;28;20025;-81
2024/01/22 01:03:11;;;;;;;3.70;2.40;;;;;;;9.83;100.00;100721.03;5259217;28;20048;-81
2024/01/22 01:05:43;;;;;;;4.50;2.25;;;;;;;9.86;100.00;100735.66;5263767;28;20059;-81
2024/01/22 01:08:14;;;;;;;6.15;2.60;;;;;;;9.90;100.00;100727.41;5264516;28;20020;-81
2024/01/22 01:10:46;;;;;;;6.28;2.33;;;;;;;9.92;100.00;100725.47;5268082;28;20020;-81
2024/01/22 01:13:18;;;;;;;6.35;2.83;;;;;;;10.02;100.00;100743.06;5268309;28;20451;-81
2024/01/22 01:15:50;;;;;;;4.80;2.00;;;;;;;10.03;100.00;100721.97;5265696;28;20027;-81
2024/01/22 01:18:22;;;;;;;4.60;2.13;;;;;;;10.03;100.00;100705.44;5273223;28;20029;-81
2024/01/22 01:20:54;;;;;;;3.83;2.20;;;;;;;10.05;100.00;100711.38;5267273;28;20040;-81
2024/01/22 01:23:26;;;;;;;3.97;2.38;;;;;;;10.10;100.00;100725.72;5268052;28;20046;-81
2024/01/22 01:25:58;;;;;;;4.25;2.13;;;;;;;10.05;100.00;100714.00;5270313;28;20383;-81
2024/01/22 01:28:30;;;;;;;3.53;2.00;;;;;;;10.05;100.00;100711.38;5269529;28;20046;-81
2024/01/22 01:31:02;;;;;;;4.45;2.20;;;;;;;10.09;100.00;100694.47;5266283;28;20120;-81
2024/01/22 01:33:34;;;;;;;4.07;2.05;;;;;;;10.12;100.00;100704.69;5266382;28;20401;-81
2024/01/22 01:36:06;;;;;;;2.77;1.63;;;;;;;10.12;100.00;100681.13;5251754;28;20033;-81
2024/01/22 01:38:38;;;;;;;4.43;1.85;;;;;;;10.09;100.00;100676.13;5269821;28;20107;-81
2024/01/22 01:41:10;;;;;;;4.03;1.92;;;;;;;10.12;100.00;100653.16;5269110;28;20029;-81
2024/01/22 01:43:42;;;;;;;4.40;1.88;;;;;;;10.16;100.00;100640.63;5267073;28;20388;-82
2024/01/22 01:46:13;;;;;;;2.67;1.77;;;;;;;10.30;100.00;100666.44;5266357;28;20036;-81
2024/01/22 01:48:46;;;;;;;4.05;1.70;;;;;;;10.22;100.00;100648.75;5263013;28;20059;-81
2024/01/22 01:51:18;;;;;;;2.83;1.80;;;;;;;10.24;100.00;100662.56;5266025;28;20033;-81
2024/01/22 01:53:53;;;;;;;2.90;2.00;;;;;;;10.27;100.00;100656.28;5271782;28;20032;-81
2024/01/22 01:56:26;;;;;;;3.42;1.77;;;;;;;10.35;100.00;100642.50;5269923;28;20413;-81
2024/01/22 01:58:58;;;;;;;6.68;2.92;;;;;;;10.40;100.00;100654.22;5276977;28;20055;-81
2024/01/22 02:01:30;;;;;;;4.63;2.30;;;;;;;10.30;100.00;100655.97;5268706;28;20025;-80
2024/01/22 02:04:02;;;;;;;3.08;1.58;;;;;;;10.26;100.00;100625.78;5276967;28;20071;-81
2024/01/22 02:06:34;;;;;;;3.85;2.10;;;;;;;10.36;100.00;100659.88;5270883;28;20041;-81
2024/01/22 02:09:06;;;;;;;2.92;1.75;;;;;;;10.31;100.00;100641.13;5268546;28;20043;-81
2024/01/22 02:11:38;;;;;;;3.15;1.55;;;;;;;10.42;100.00;100639.22;5269076;28;20024;-81
2024/01/22 02:14:10;;;;;;;2.85;1.60;;;;;;;10.35;100.00;100609.28;5267718;28;20039;-81
2024/01/22 02:16:42;;;;;;;2.45;1.67;;;;;;;10.41;100.00;100621.81;5267442;28;20033;-81
2024/01/22 02:19:14;;;;;;;3.20;1.83;;;;;;;10.45;100.00;100611.91;5268974;28;20053;-81
2024/01/22 02:21:46;;;;;;;4.57;1.65;;;;;;;10.43;100.00;100606.81;5269921;28;20770;-81
2024/01/22 02:24:18;;;;;;;2.10;1.50;;;;;;;10.44;100.00;100605.84;5262900;28;20037;-81
2024/01/22 02:26:50;;;;;;;3.88;1.65;;;;;;;10.47;100.00;100586.44;5261245;28;20078;-81
2024/01/22 02:29:22;;;;;;;3.53;1.90;;;;;;;10.58;100.00;100581.06;5265335;28;20032;-81
2024/01/22 02:31:55;;;;;;;3.33;1.30;;;;;;;10.69;100.00;100570.47;5262457;28;20033;-80
2024/01/22 02:34:28;;;;;;;2.53;1.53;;;;;;;10.67;100.00;100567.13;5260846;28;20039;-81
2024/01/22 02:36:59;;;;;;;2.63;1.88;;;;;;;10.63;100.00;100562.31;5262481;28;20302;-80
2024/01/22 02:39:32;;;;;;;3.95;1.98;;;;;;;10.71;100.00;100547.56;5262274;28;20028;-81
2024/01/22 02:42:04;;;;;;;2.20;1.38;;;;;;;10.65;100.00;100542.88;5262209;28;20502;-81
2024/01/22 02:44:36;;;;;;;2.28;1.52;;;;;;;10.64;100.00;100519.44;5261062;28;20028;-81
2024/01/22 02:47:16;;;;;;;4.03;1.73;;;;;;;10.80;100.00;100517.09;5262213;28;20086;-81
2024/01/22 02:49:48;;;;;;;3.45;1.67;;;;;;;10.70;100.00;100503.16;5262330;28;20044;-80
2024/01/22 02:52:20;;;;;;;3.17;1.60;;;;;;;10.78;100.00;100513.78;5257067;28;20470;-81
2024/01/22 02:54:52;;;;;;;3.28;1.60;;;;;;;10.74;100.00;100504.53;5258791;28;20082;-80
2024/01/22 02:57:24;;;;;;;2.65;1.70;;;;;;;10.78;100.00;100498.03;5262425;28;20029;-80
2024/01/22 02:59:56;;;;;;;3.88;1.48;;;;;;;10.82;100.00;100494.19;5259905;28;20037;-80
2024/01/22 03:02:28;;;;;;;3.63;1.60;;;;;;;10.73;100.00;100468.81;5262530;28;20101;-80
2024/01/22 03:05:00;;;;;;;2.90;1.60;;;;;;;10.78;100.00;100497.22;5263210;28;20466;-80
2024/01/22 03:07:32;;;;;;;4.88;1.52;;;;;;;10.70;100.00;100484.81;5258816;28;20049;-81
2024/01/22 03:10:04;;;;;;;3.40;1.40;;;;;;;10.79;100.00;100470.03;5259363;28;20521;-80
2024/01/22 03:12:36;;;;;;;2.40;1.30;;;;;;;10.84;100.00;100466.06;5263012;28;20036;-80
2024/01/22 03:15:08;;;;;;;2.97;1.50;;;;;;;10.80;100.00;100464.69;5261832;28;20029;-81
2024/01/22 03:17:40;;;;;;;3.47;1.67;;;;;;;10.78;100.00;100450.06;5260869;28;20032;-81
2024/01/22 03:20:13;;;;;;;3.03;1.30;;;;;;;10.70;100.00;100443.72;5260347;28;20032;-81
2024/01/22 03:22:45;;;;;;;3.15;1.40;;;;;;;10.67;100.00;100432.69;5261085;28;20040;-81
2024/01/22 03:25:17;;;;;;;3.28;1.42;;;;;;;10.73;100.00;100454.91;5268878;28;20482;-81
2024/01/22 03:27:49;;;;;;;2.88;1.95;;;;;;;10.75;100.00;100451.16;5261307;28;20021;-81
2024/01/22 03:30:20;;;;;;;2.70;1.30;;;;;;;10.75;100.00;100430.19;5260275;28;20055;-80
2024/01/22 03:32:53;;;;;;;2.42;1.20;;;;;;;10.74;100.00;100444.28;5255351;28;20047;-81
2024/01/22 03:35:24;;;;;;;2.72;1.55;;;;;;;10.78;100.00;100443.03;5261280;28;20295;-80
2024/01/22 03:37:56;;;;;;;4.53;1.83;;;;;;;10.84;100.00;100454.75;5265138;28;20043;-81
2024/01/22 03:40:28;;;;;;;2.13;1.10;;;;;;;10.80;100.00;100430.63;5257191;28;20033;-81
2024/01/22 03:43:00;;;;;;;3.05;1.33;;;;;;;10.86;100.00;100434.44;5260886;28;20056;-81
2024/01/22 03:45:32;;;;;;;3.03;1.58;;;;;;;10.89;100.00;100437.63;5261102;28;20572;-81
2024/01/22 03:48:04;;;;;;;2.38;1.13;;;;;;;10.92;100.00;100432.09;5260923;28;20040;-81
2024/01/22 03:50:36;;;;;;;2.57;1.33;;;;;;;11.04;100.00;100418.81;5265078;28;20028;-81
2024/01/22 03:53:08;;;;;;;1.77;1.15;;;;;;;11.06;100.00;100412.47;5264774;28;20039;-81
2024/01/22 03:55:40;;;;;;;2.22;1.20;;;;;;;11.14;100.00;100419.63;5264789;28;20040;-81
2024/01/22 03:58:12;;;;;;;4.85;1.02;;;;;;;11.16;100.00;100409.78;5267905;28;20484;-81
2024/01/22 04:00:44;;;;;;;1.70;0.95;;;;;;;11.17;100.00;100422.78;5264226;28;20036;-81
2024/01/22 04:03:16;;;;;;;2.35;1.10;;;;;;;11.21;100.00;100404.94;5271446;28;20321;-81
2024/01/22 04:05:48;;;;;;;2.65;1.20;;;;;;;11.18;100.00;100426.22;5273888;28;20043;-81
2024/01/22 04:08:20;;;;;;;2.08;1.00;;;;;;;11.18;100.00;100415.75;5270794;28;20188;-81
2024/01/22 04:10:51;;;;;;;1.63;0.90;;;;;;;11.15;100.00;100397.66;5271377;28;20492;-81
2024/01/22 04:13:23;;;;;;;1.90;1.00;;;;;;;11.24;100.00;100409.91;5271774;28;20033;-83
2024/01/22 04:15:55;;;;;;;2.78;1.10;;;;;;;11.26;100.00;100392.22;5269712;28;20035;-82
2024/01/22 04:18:27;;;;;;;3.30;0.90;;;;;;;11.32;100.00;100399.50;5280787;28;20044;-82
2024/01/22 04:20:59;;;;;;;3.00;1.15;;;;;;;11.26;100.00;100400.09;5273146;28;20497;-82
2024/01/22 04:23:33;;;;;;;3.35;1.05;;;;;;;11.37;100.00;100399.91;5273240;28;20046;-82
2024/01/22 04:26:05;;;;;;;2.80;1.00;;;;;;;11.32;100.00;100396.06;5270395;28;20048;-81
2024/01/22 04:28:37;;;;;;;2.40;1.10;;;;;;;11.31;100.00;100383.91;5270697;28;20029;-82
2024/01/22 04:31:09;;;;;;;2.25;1.15;;;;;;;11.42;100.00;100400.28;5269500;28;20031;-82
2024/01/22 04:33:43;;;;;;;1.98;0.82;;;;;;;11.40;100.00;100399.63;5271277;28;20666;-82
2024/01/22 04:36:15;;;;;;;3.70;1.15;;;;;;;11.43;100.00;100403.72;5269559;28;20029;-82
2024/01/22 04:38:47;;;;;;;2.08;1.00;;;;;;;11.51;100.00;100395.94;5266207;28;20110;-82
2024/01/22 04:41:19;;;;;;;3.13;1.00;;;;;;;11.58;100.00;100398.81;5268529;28;20063;-82
2024/01/22 04:43:51;;;;;;;1.75;0.80;;;;;;;11.61;100.00;100388.84;5269603;28;20032;-81
2024/01/22 04:46:24;;;;;;;3.33;0.90;;;;;;;11.64;100.00;100391.19;5269631;28;20198;-81
2024/01/22 04:48:55;;;;;;;3.78;0.95;;;;;;;11.72;100.00;100397.50;5264959;28;20036;-81
2024/01/22 04:51:27;;;;;;;1.73;0.80;;;;;;;11.73;100.00;100388.63;5269346;28;20035;-82
2024/01/22 04:53:59;;;;;;;2.22;0.90;;;;;;;11.76;100.00;100399.66;5279273;28;20041;-81
2024/01/22 04:56:31;;;;;;;2.35;1.20;;;;;;;11.79;100.00;100383.63;5275021;28;20039;-81
2024/01/22 04:59:03;;;;;;;2.25;1.00;;;;;;;11.94;100.00;100368.22;5268098;28;20033;-82
2024/01/22 05:01:35;;;;;;;1.33;0.68;;;;;;;11.98;100.00;100368.75;5272087;28;20389;-81
2024/01/22 05:04:07;;;;;;;2.60;0.77;;;;;;;11.96;100.00;100383.81;5275799;28;20029;-81
2024/01/22 05:06:39;;;;;;;3.17;1.00;;;;;;;12.01;100.00;100390.28;5264234;28;20055;-82
2024/01/22 05:09:11;;;;;;;2.28;0.98;;;;;;;12.08;100.00;100383.41;5259182;28;20036;-82
2024/01/22 05:11:43;;;;;;;3.97;1.35;;;;;;;12.03;100.00;100376.97;5258978;28;20048;-82
2024/01/22 05:14:15;;;;;;;2.33;1.10;;;;;;;12.22;100.00;100389.13;5267879;28;20033;-81
2024/01/22 05:16:47;;;;;;;1.88;0.80;;;;;;;12.27;100.00;100374.53;5262369;28;20500;-81
2024/01/22 05:19:19;;;;;;;2.67;0.80;;;;;;;12.21;100.00;100361.22;5264203;28;20040;-80
2024/01/22 05:21:50;;;;;;;2.78;1.42;;;;;;;12.20;100.00;100383.19;5263183;28;20174;-80
2024/01/22 05:24:22;;;;;;;2.42;0.80;;;;;;;12.11;100.00;100363.91;5261225;28;20477;-80
2024/01/22 05:26:54;;;;;;;1.75;0.80;;;;;;;12.22;100.00;100391.75;5257667;28;20075;-81
2024/01/22 05:29:26;;;;;;;2.13;0.82;;;;;;;12.13;100.00;100385.59;5265526;28;20065;-80
2024/01/22 05:31:58;;;;;;;2.95;1.00;;;;;;;12.23;100.00;100390.75;5266408;28;20043;-80
2024/01/22 05:34:30;;;;;;;3.83;0.80;;;;;;;12.27;100.00;100382.41;5266822;28;20029;-80
2024/01/22 05:37:02;;;;;;;1.50;0.70;;;;;;;12.27;100.00;100398.19;5266347;28;20041;-80
2024/01/22 05:39:34;;;;;;;1.80;0.90;;;;;;;12.22;100.00;100395.19;5267593;28;20517;-80
2024/01/22 05:42:06;;;;;;;2.38;0.90;;;;;;;12.23;100.00;100391.59;5264351;28;20024;-80
2024/01/22 05:44:38;;;;;;;1.92;0.90;;;;;;;12.20;100.00;100396.31;5259729;28;20044;-80
2024/01/22 05:47:10;;;;;;;1.38;0.80;;;;;;;12.11;100.00;100387.53;5264681;28;20028;-80
2024/01/22 05:49:42;;;;;;;2.47;0.85;;;;;;;12.18;100.00;100389.41;5263432;28;20033;-80
2024/01/22 05:52:14;;;;;;;2.45;0.90;;;;;;;12.09;100.00;100392.16;5267188;28;20024;-80
2024/01/22 05:54:46;;;;;;;3.83;0.90;;;;;;;12.12;100.00;100386.56;5265488;28;20024;-80
2024/01/22 05:57:17;;;;;;;2.05;0.70;;;;;;;12.10;100.00;100406.91;5266750;28;20025;-81
2024/01/22 05:59:49;;;;;;;2.35;0.95;;;;;;;12.15;100.00;100399.41;5264918;28;20038;-80
2024/01/22 06:02:21;;;;;;;2.03;1.02;;;;;;;12.05;100.00;100396.03;5265278;28;20581;-80
2024/01/22 06:04:53;;;;;;;2.60;1.10;;;;;;;12.02;100.00;100393.72;5265515;28;20055;-80
2024/01/22 06:07:25;;;;;;;3.08;1.02;;;;;;;11.98;100.00;100397.63;5263367;28;20040;-80
2024/01/22 06:09:57;;;;;;;2.10;0.65;;;;;;;11.99;100.00;100400.09;5265136;28;20081;-80
2024/01/22 06:12:29;;;;;;;2.13;0.90;;;;;;;11.94;100.00;100407.59;5265854;28;20028;-80
2024/01/22 06:15:01;;;;;;;2.85;1.10;;;;;;;11.92;100.00;100410.34;5262394;28;20037;-81
2024/01/22 06:17:35;;;;;;;4.40;0.97;;;;;;;12.04;100.00;100399.63;5267781;28;20040;-80
2024/01/22 06:20:09;;;;;;;4.05;1.00;;;;;;;11.96;100.00;100362.81;5265891;28;20776;-81
2024/01/22 06:22:41;;;;;;;3.25;1.23;;;;;;;12.02;100.00;100380.59;5262965;28;20048;-80
2024/01/22 06:25:12;;;;;;;3.75;1.27;;;;;;;11.96;100.00;100381.19;5265443;28;20028;-81
2024/01/22 06:27:45;;;;;;;2.38;0.93;;;;;;;12.02;100.00;100391.91;5268047;28;20025;-81
2024/01/22 06:30:17;;;;;;;2.23;1.00;;;;;;;12.01;100.00;100406.03;5266864;28;20032;-81
2024/01/22 06:32:49;;;;;;;3.80;1.20;;;;;;;11.92;100.00;100405.09;5265969;28;20409;-81
2024/01/22 06:35:21;;;;;;;1.65;0.90;;;;;;;11.93;100.00;100404.16;5262932;28;20040;-81
2024/01/22 06:37:53;;;;;;;3.22;1.10;;;;;;;11.94;100.00;100402.34;5262939;28;20035;-81
2024/01/22 06:40:25;;;;;;;2.72;0.93;;;;;;;12.04;100.00;100397.00;5263709;28;20045;-81
2024/01/22 06:42:57;;;;;;;1.95;0.90;;;;;;;11.92;100.00;100386.72;5264958;28;20092;-81
2024/01/22 06:45:29;;;;;;;2.28;0.70;;;;;;;11.90;100.00;100408.88;5275562;28;20310;-81
2024/01/22 06:48:01;;;;;;;1.85;1.15;;;;;;;12.00;100.00;100419.28;5264463;28;20062;-80
2024/01/22 06:50:33;;;;;;;4.60;1.10;;;;;;;12.03;100.00;100411.13;5260645;28;20045;-80
2024/01/22 06:53:06;;;;;;;2.60;0.90;;;;;;;12.11;100.00;100422.50;5262290;28;20032;-80
2024/01/22 06:55:38;;;;;;;1.80;0.80;;;;;;;12.15;100.00;100436.16;5263866;28;20477;-80
2024/01/22 06:58:10;;;;;;;2.88;1.00;;;;;;;12.20;100.00;100430.44;5259318;28;20118;-80
2024/01/22 07:00:42;;;;;;;1.88;0.70;;;;;;;12.08;100.00;100425.44;5264189;28;20036;-80
2024/01/22 07:03:14;;;;;;;1.40;0.60;;;;;;;12.19;100.00;100437.50;5268091;28;20038;-80
2024/01/22 07:05:46;;;;;;;2.65;1.00;;;;;;;12.20;100.00;100428.69;5262004;28;20041;-80
2024/01/22 07:08:19;;;;;;;1.65;0.80;;;;;;;12.13;100.00;100417.13;5259760;28;20421;-80
2024/01/22 07:10:53;;;;;;;1.67;0.70;;;;;;;12.16;100.00;100428.16;5260159;28;20028;-80
2024/01/22 07:13:24;;;;;;;2.03;0.70;;;;;;;12.24;100.00;100434.44;5261207;28;20297;-80
2024/01/22 07:15:56;;;;;;;2.97;1.10;;;;;;;12.16;100.00;100428.16;5258983;28;20397;-80
2024/01/22 07:18:28;;;;;;;2.15;0.90;;;;;;;12.16;100.00;100422.06;5257245;28;20036;-80
2024/01/22 07:21:00;;;;;;;2.85;1.17;;;;;;;12.09;100.00;100424.47;5251480;28;20080;-80
2024/01/22 07:23:32;;;;;;;3.33;1.10;;;;;;;12.15;100.00;100423.03;5255871;28;20421;-80
2024/01/22 07:26:10;;;;;;;3.28;1.00;;;;;;;12.16;100.00;100415.03;5250519;28;20024;-80
2024/01/22 07:28:43;;;;;;;4.93;1.73;;;;;;;12.14;100.00;100421.38;5257600;28;20044;-80
2024/01/22 07:31:15;;;;;;;2.15;1.33;;;;;;;12.24;100.00;100421.31;5250239;28;20044;-80
2024/01/22 07:33:47;;;;;;;3.33;1.40;;;;;;;12.39;100.00;100435.56;5261022;28;20040;-80
2024/01/22 07:36:19;;;;;;;3.45;1.23;;;;;;;12.29;100.00;100426.94;5263089;28;20021;-80
2024/01/22 07:38:54;;;;;;;3.78;1.00;;;;;;;12.44;100.00;100440.34;5257546;28;20025;-80
2024/01/22 07:41:26;;;;;;;2.75;1.05;;;;;;;12.31;100.00;100441.56;5260572;28;20048;-80
2024/01/22 07:43:58;;;;;;;4.63;1.10;;;;;;;12.32;100.00;100426.63;5259088;28;20041;-80
2024/01/22 07:46:30;;;;;;;6.07;1.30;;;;;;;12.24;100.00;100432.66;5263324;28;20035;-80
2024/01/22 07:49:04;;;;;;;6.28;1.70;;;;;;;12.34;100.00;100427.31;5262246;28;20029;-80
2024/01/22 07:51:42;;;;;;;5.93;1.92;;;;;;;12.51;100.00;100449.28;5253562;28;20063;-81
2024/01/22 07:54:14;;;;;;;9.63;1.83;;;;;;;12.44;100.00;100443.00;5254661;28;20036;-80
2024/01/22 07:56:45;;;;;;;5.32;1.58;;;;;;;12.34;100.00;100429.91;5251996;28;20049;-80
2024/01/22 07:59:17;;;;;;;6.50;1.73;;;;;;;12.44;100.00;100438.56;5258347;28;20067;-80
2024/01/22 08:01:49;;;;;;;5.95;1.80;;;;;;;12.51;100.00;100434.34;5262512;28;20039;-80
2024/01/22 08:04:21;;;;;;;6.53;1.88;;;;;;;12.44;100.00;100419.34;5258732;28;20291;-80
2024/01/22 08:06:53;;;;;;;7.60;1.95;;;;;;;12.40;100.00;100432.78;5261875;28;20036;-81
2024/01/22 08:09:27;;;;;;;7.63;2.20;;;;;;;12.39;100.00;100428.50;5257605;28;20041;-81
2024/01/22 08:11:59;;;;;;;10.02;2.33;;;;;;;12.31;100.00;100436.31;5258407;28;20497;-80
2024/01/22 08:14:31;;;;;;;11.77;2.88;;;;;;;12.34;100.00;100433.38;5259404;28;20045;-80
2024/01/22 08:17:03;;;;;;;12.20;3.30;;;;;;;12.35;100.00;100442.94;5261013;28;20035;-80
2024/01/22 08:19:36;;;;;;;16.35;3.95;;;;;;;12.38;100.00;100432.09;5257661;28;20041;-82
2024/01/22 08:22:07;;;;;;;13.95;2.95;;;;;;;12.37;100.00;100435.69;5257382;28;20029;-81
2024/01/22 08:24:40;;;;;;;10.48;2.95;;;;;;;12.26;100.00;100446.44;5258584;28;20417;-81
2024/01/22 08:27:13;;;;;;;14.77;3.33;;;;;;;12.39;100.00;100457.41;5258002;28;20493;-81
2024/01/22 08:29:45;;;;;;;12.05;2.72;;;;;;;12.29;100.00;100446.16;5254471;28;20063;-81
2024/01/22 08:32:17;;;;;;;11.38;2.40;;;;;;;12.38;100.00;100453.09;5257014;28;20032;-81
2024/01/22 08:34:49;;;;;;;6.95;2.25;;;;;;;12.38;100.00;100468.88;5266850;28;20043;-81
2024/01/22 08:37:21;;;;;;;12.48;2.67;;;;;;;12.39;100.00;100465.28;5262224;28;20496;-81
2024/01/22 08:39:53;;;;;;;11.13;2.75;;;;;;;12.43;100.00;100475.50;5254960;28;20037;-81
2024/01/22 08:42:25;;;;;;;16.10;3.25;;;;;;;12.37;100.00;100480.38;5257830;28;20036;-81
2024/01/22 08:44:57;;;;;;;12.25;2.83;;;;;;;12.25;100.00;100472.88;5257059;28;20036;-81
2024/01/22 08:47:30;;;;;;;11.90;3.38;;;;;;;12.28;100.00;100489.16;5268197;28;20399;-81
2024/01/22 08:50:01;;;;;;;9.43;2.95;;;;;;;12.17;100.00;100476.25;5252911;28;20039;-81
2024/01/22 08:52:33;;;;;;;14.75;3.03;;;;;;;12.28;100.00;100506.72;5252573;28;20048;-81
2024/01/22 08:55:06;;;;;;;9.55;2.78;;;;;;;12.26;100.00;100495.53;5253102;28;20037;-81
2024/01/22 08:57:39;;;;;;;11.57;2.50;;;;;;;12.31;100.00;100496.75;5256995;28;21004;-81
2024/01/22 09:00:11;;;;;;;;;;;;;;;12.85;100.00;100499.31;5254803;28;20033;-81
2024/01/22 09:02:43;;;;;;;12.43;2.72;;;;;;;12.29;100.00;100495.22;5254020;28;20248;-81
2024/01/22 09:05:15;;;;;;;9.50;2.50;;;;;;;12.22;100.00;100481.03;5256100;28;20052;-81
2024/01/22 09:07:48;;;;;;;8.50;3.08;;;;;;;12.18;100.00;100477.88;5254785;28;20033;-81
2024/01/22 09:10:21;;;;;;;11.63;3.35;;;;;;;12.32;100.00;100487.06;5257229;28;20044;-81
2024/01/22 09:12:53;;;;;;;13.35;3.75;;;;;;;12.28;100.00;100481.28;5245984;28;20044;-81
2024/01/22 09:15:25;;;;;;;10.68;3.00;;;;;;;12.23;100.00;100470.38;5256329;28;20074;-81
2024/01/22 09:17:57;;;;;;;13.82;3.60;;;;;;;12.12;100.00;100483.72;5255218;28;20063;-81
2024/01/22 09:20:30;;;;;;;11.50;3.22;;;;;;;12.10;100.00;100477.81;5253482;28;20270;-81
2024/01/22 09:23:02;;;;;;;13.98;3.38;;;;;;;12.08;100.00;100475.31;5249013;28;20036;-81
2024/01/22 09:25:36;;;;;;;9.77;3.25;;;;;;;12.15;100.00;100483.44;5252014;28;20455;-80
2024/01/22 09:28:09;;;;;;;9.27;2.70;;;;;;;12.14;100.00;100482.59;5252468;28;20389;-81
2024/01/22 09:30:41;;;;;;;13.35;2.88;;;;;;;12.02;100.00;100473.31;5254709;28;20041;-80
2024/01/22 09:33:13;;;;;;;10.85;2.20;;;;;;;12.05;100.00;100478.25;5259709;28;20028;-80
2024/01/22 09:35:45;;;;;;;11.80;2.80;;;;;;;11.96;100.00;100463.38;5256999;28;20048;-81
2024/01/22 09:38:17;;;;;;;14.10;3.25;;;;;;;12.07;100.00;100473.66;5258187;28;20033;-80
2024/01/22 09:40:51;;;;;;;16.88;2.90;;;;;;;12.03;100.00;100471.50;5258269;28;20037;-80
2024/01/22 09:43:23;;;;;;;8.13;2.13;;;;;;;12.15;100.00;100488.69;5258960;28;20033;-81
2024/01/22 09:45:56;;;;;;;11.18;2.30;;;;;;;12.13;100.00;100494.09;5253659;28;20494;-80
2024/01/22 09:48:32;;;;;;;9.43;2.45;;;;;;;12.12;100.00;100497.72;5253066;28;20127;-80
2024/01/22 09:51:06;;;;;;;12.38;2.80;;;;;;;12.20;100.00;100514.50;5250910;28;20033;-80
2024/01/22 09:53:40;;;;;;;9.77;2.38;;;;;;;12.12;100.00;100484.56;5256823;28;20810;-80
2024/01/22 09:56:15;;;;;;;8.88;2.25;;;;;;;12.39;100.00;100517.00;5261785;28;20027;-80
2024/01/22 09:58:53;;;;;;;7.25;1.95;;;;;;;12.30;100.00;100510.81;5261753;28;20532;-81
2024/01/22 10:01:25;;;;;;;5.85;1.75;;;;;;;12.27;100.00;100528.69;5255977;28;20028;-81
2024/01/22 10:03:57;;;;;;;7.03;2.35;;;;;;;12.40;100.00;100522.09;5261010;28;20512;-81
2024/01/22 10:06:31;;;;;;;3.67;1.40;;;;;;;12.41;100.00;100536.88;5262247;28;20103;-80
2024/01/22 10:09:03;;;;;;;7.10;2.03;;;;;;;12.24;100.00;100524.56;5259224;28;20025;-80
2024/01/22 10:11:35;;;;;;;5.72;1.40;;;;;;;12.25;100.00;100536.72;5269383;28;20041;-80
2024/01/22 10:14:07;;;;;;;6.72;1.90;;;;;;;12.26;100.00;100545.44;5264872;28;20503;-80
2024/01/22 10:16:39;;;;;;;8.48;1.60;;;;;;;12.27;100.00;100554.94;5269229;28;20024;-81
2024/01/22 10:19:12;;;;;;;5.47;1.42;;;;;;;12.34;100.00;100575.22;5266672;28;20025;-81
2024/01/22 10:21:44;;;;;;;10.27;2.28;;;;;;;12.46;100.00;100611.78;5266681;28;20037;-81
2024/01/22 10:24:16;;;;;;;9.32;2.53;;;;;;;11.96;100.00;100627.97;5260034;28;20032;-81
2024/01/22 10:26:48;;;;;;;12.05;2.60;;;;;;;11.64;100.00;100632.59;5259997;28;20677;-81
2024/01/22 10:29:22;;;;;;;13.38;2.65;;;;;;;11.35;100.00;100651.00;5262094;28;20112;-81
2024/01/22 10:32:00;;;;;;;10.88;3.08;;;;;;;11.42;100.00;100638.97;5261054;28;20032;-81
2024/01/22 10:34:45;;;;;;;13.23;3.65;;;;;;;11.28;100.00;100631.53;5261515;28;20035;-81
2024/01/22 10:37:17;;;;;;;11.70;2.85;;;;;;;11.11;100.00;100638.31;5259637;28;20079;-81
2024/01/22 10:40:03;;;;;;;15.90;3.53;;;;;;;11.21;100.00;100633.06;5259948;28;20029;-81
2024/01/22 10:42:35;;;;;;;14.48;4.32;;;;;;;10.90;100.00;100643.69;5269059;28;20079;-81
2024/01/22 10:45:10;;;;;;;16.88;4.63;;;;;;;11.02;100.00;100648.81;5257129;28;20037;-80
2024/01/22 10:47:43;;;;;;;15.82;3.75;;;;;;;10.91;100.00;100616.53;5261069;28;20028;-80
2024/01/22 10:50:15;;;;;;;19.38;4.20;;;;;;;11.02;100.00;100651.41;5257250;28;20036;-81
2024/01/22 10:52:48;;;;;;;19.63;4.95;;;;;;;11.05;100.00;100638.88;5260150;28;20037;-80
2024/01/22 10:55:21;;;;;;;15.52;4.60;;;;;;;11.08;100.00;100637.78;5257672;28;20040;-81
2024/01/22 10:57:56;;;;;;;20.85;4.20;;;;;;;11.07;100.00;100636.94;5260707;28;20032;-81
2024/01/22 11:00:30;;;;;;;18.45;4.55;;;;;;;11.14;100.00;100640.69;5257901;28;20034;-81
2024/01/22 11:03:06;;;;;;;19.70;4.70;;;;;;;11.11;100.00;100634.88;5260755;28;20032;-80
2024/01/22 11:05:42;;;;;;;20.60;4.88;;;;;;;11.17;100.00;100640.41;5257887;28;20040;-80
2024/01/22 11:08:17;;;;;;;20.17;4.90;;;;;;;11.26;100.00;100643.16;5259441;28;20040;-80
2024/01/22 11:10:51;;;;;;;17.00;4.57;;;;;;;11.27;100.00;100642.19;5258528;28;20037;-80
2024/01/22 11:13:23;;;;;;;19.35;5.63;;;;;;;11.30;100.00;100647.97;5256384;28;20531;-80
2024/01/22 11:15:55;;;;;;;19.63;5.30;;;;;;;11.23;100.00;100660.00;5259664;28;20215;-80
2024/01/22 11:18:33;;;;;;;21.53;4.80;;;;;;;11.41;100.00;100668.00;5262510;28;20389;-81
2024/01/22 11:21:18;;;;;;;22.20;5.70;;;;;;;11.54;100.00;100667.69;5259545;28;20052;-81
2024/01/22 11:24:14;;;;;;;26.17;6.22;;;;;;;11.54;100.00;100679.00;5256197;28;20323;-81
2024/01/22 11:26:51;;;;;;;24.80;6.40;;;;;;;11.44;100.00;100693.94;5261795;28;21031;-81
2024/01/22 11:29:28;;;;;;;23.98;6.18;;;;;;;11.40;100.00;100698.63;5257625;28;20021;-80
2024/01/22 11:32:35;;;;;;;22.77;6.07;;;;;;;11.63;100.00;100690.44;5260091;28;20051;-81
2024/01/22 11:35:07;;;;;;;22.27;6.07;;;;;;;11.26;100.00;100688.56;5214208;28;20041;-81
2024/01/22 11:37:40;;;;;;;25.35;6.50;;;;;;;11.28;100.00;100702.34;5251173;28;20056;-80
2024/01/22 11:40:12;;;;;;;22.35;6.82;;;;;;;11.31;100.00;100709.94;5259788;28;20752;-81
2024/01/22 11:42:45;;;;;;;22.08;6.47;;;;;;;11.26;100.00;100700.84;5262823;28;20032;-81